»·PEaware :: N13W KMHV-KMYF

N13W :: KMHV-KMYF

FLIGHT INFORMATION

Flight Status: Arrived
Operator: Privately registered:
United States
More flights under this callsign
Pilot: Will N. (25416)
Aircraft: SOCATA TBM-900
(TBM9)
More flights by this aircraft type
Origin: KMHV Mojave
United States
Destination: KMYF Montgomery
United States
More flights between these airports :: More routes between these airports
Route: JEIRD5 JERID LAX CARDI MZB
File this flight plan on PilotEdge
Remarks:
Altitude:
(Current/Filed)
19,000ft
Speed:
(Current/Filed)
280kts
Departed: 27-Feb-21 09:26 AM
Arrived: 27-Feb-21 10:15 AM
Distance/Time
Traveled:
144nm/0:48
Distance/Time
To Go:
Arrived

Flight Plot

Page will automatically refresh every two minutes.

Flight plan parsing failed; only flown route is shown


Map Options




Map Legend


Flown Route
Filed Route
Departure Airport
Arrival Airport
Navaid (VOR, NDB)
Fix

Horizontal Profiles

Position Reports

Time Latitude Longitude Heading Altitude Ground
Speed
27-Feb-21 09:09 35.056820 -118.148987 275 2744ft 0kts
27-Feb-21 09:10 35.056820 -118.148987 275 2744ft 0kts
27-Feb-21 09:11 35.056820 -118.148987 275 2744ft 0kts
27-Feb-21 09:12 35.056820 -118.148987 275 2744ft 0kts
27-Feb-21 09:13 35.056820 -118.148987 275 2744ft 0kts
27-Feb-21 09:14 35.056820 -118.148987 275 2744ft 0kts
27-Feb-21 09:16 35.056820 -118.148987 275 2744ft 0kts
27-Feb-21 09:17 35.056820 -118.148987 275 2744ft 0kts
27-Feb-21 09:18 35.056820 -118.148987 275 2744ft 0kts
27-Feb-21 09:19 35.056820 -118.148987 275 2744ft 0kts
27-Feb-21 09:20 35.056820 -118.148987 275 2744ft 0kts
27-Feb-21 09:21 35.057840 -118.149458 26 2747ft 13kts
27-Feb-21 09:22 35.057592 -118.144185 86 2735ft 18kts
27-Feb-21 09:23 35.057559 -118.143208 91 2733ft 0kts
27-Feb-21 09:24 35.058159 -118.142628 2 2733ft 0kts
27-Feb-21 09:25 35.058274 -118.142626 0 2733ft 0kts
27-Feb-21 09:26 35.059190 -118.150528 269 2753ft 102kts
27-Feb-21 09:27 35.055691 -118.192371 216 4123ft 158kts
27-Feb-21 09:28 35.021502 -118.225464 227 5955ft 158kts
27-Feb-21 09:29 34.987101 -118.261500 225 7980ft 169kts
27-Feb-21 09:30 34.949112 -118.300453 226 9904ft 184kts
27-Feb-21 09:31 34.908509 -118.342020 227 11656ft 192kts
27-Feb-21 09:32 34.860331 -118.366751 148 13153ft 227kts
27-Feb-21 09:33 34.818882 -118.307947 132 14507ft 232kts
27-Feb-21 09:34 34.774864 -118.249291 129 15706ft 237kts
27-Feb-21 09:35 34.717963 -118.225401 182 16815ft 230kts
27-Feb-21 09:36 34.653223 -118.215406 177 17877ft 237kts
27-Feb-21 09:36 34.599030 -118.205401 177 18807ft 239kts
27-Feb-21 09:38 34.522493 -118.227792 202 19014ft 258kts
27-Feb-21 09:39 34.452109 -118.252343 202 19031ft 267kts
27-Feb-21 09:40 34.378708 -118.277887 202 19004ft 277kts
27-Feb-21 09:41 34.304400 -118.303703 202 18993ft 279kts
27-Feb-21 09:41 34.241867 -118.325397 202 18990ft 279kts
27-Feb-21 09:42 34.166678 -118.351439 202 18991ft 279kts
27-Feb-21 09:44 34.079745 -118.381485 202 18992ft 279kts
27-Feb-21 09:45 34.005249 -118.407179 202 19000ft 279kts
27-Feb-21 09:46 33.929522 -118.424353 162 18990ft 296kts
27-Feb-21 09:46 33.880891 -118.365332 132 19006ft 301kts
27-Feb-21 09:47 33.823560 -118.291314 133 19006ft 301kts
27-Feb-21 09:48 33.766403 -118.218156 133 19009ft 301kts
27-Feb-21 09:49 33.708814 -118.144591 133 19014ft 301kts
27-Feb-21 09:50 33.651423 -118.071450 133 19017ft 301kts
27-Feb-21 09:51 33.593004 -117.997144 133 17992ft 308kts
27-Feb-21 09:52 33.536283 -117.925148 133 17482ft 285kts
27-Feb-21 09:53 33.482118 -117.856534 133 17080ft 285kts
27-Feb-21 09:54 33.428030 -117.788163 133 16993ft 279kts
27-Feb-21 09:55 33.371935 -117.717388 133 17000ft 273kts
27-Feb-21 09:56 33.316903 -117.648083 133 17007ft 273kts
27-Feb-21 09:57 33.261831 -117.578867 133 17012ft 273kts
27-Feb-21 09:58 33.205807 -117.508595 133 16704ft 283kts
27-Feb-21 09:59 33.145683 -117.433322 133 15681ft 293kts
27-Feb-21 10:00 33.070215 -117.384990 157 14159ft 287kts
27-Feb-21 10:01 32.990961 -117.340965 157 12544ft 285kts
27-Feb-21 10:02 32.915409 -117.299104 157 10957ft 279kts
27-Feb-21 10:03 32.865740 -117.228507 111 9336ft 267kts
27-Feb-21 10:04 32.833613 -117.145599 111 7731ft 256kts
27-Feb-21 10:05 32.803726 -117.066948 111 6158ft 248kts
27-Feb-21 10:06 32.776410 -116.994676 111 5759ft 217kts
27-Feb-21 10:07 32.753557 -116.926694 75 4675ft 163kts
27-Feb-21 10:08 32.775109 -116.935628 259 3579ft 133kts
27-Feb-21 10:09 32.766290 -116.980902 260 2793ft 127kts
27-Feb-21 10:10 32.770055 -117.022562 301 2385ft 116kts
27-Feb-21 10:11 32.785171 -117.060915 296 1958ft 129kts
27-Feb-21 10:12 32.800294 -117.099369 295 1330ft 104kts
27-Feb-21 10:13 32.813112 -117.131802 294 543ft 85kts
27-Feb-21 10:14 32.816039 -117.140384 247 421ft 6kts
27-Feb-21 10:15 32.815776 -117.141063 245 420ft 0kts
27-Feb-21 10:16 32.815776 -117.141063 245 420ft 0kts
27-Feb-21 10:17 32.814648 -117.141649 150 418ft 5kts
27-Feb-21 10:18 32.814132 -117.141258 10 418ft 0kts
27-Feb-21 10:19 32.814132 -117.141258 10 418ft 0kts

Navigation Log

Ident Type
Flight plan parsing failed, navigation log unavailable